Time;durP1;ratioP1;P1;durP2;ratioP2;P2;SDS_P1;SDS_P2;PMS_P1;PMS_P2;Temp;Humidity;BMP_temperature;BMP_pressure;BME280_temperature;BME280_humidity;BME280_pressure;Samples;Min_cycle;Max_cycle;Signal;HPM_P1;HPM_P2
2023/01/20 00:01:15;;;;;;;10.75;4.53;;;0.70;99.90;;;;;;5015491;28;20053;-81
2023/01/20 00:03:43;;;;;;;8.93;4.72;;;0.70;99.90;;;;;;4998930;28;20037;-80
2023/01/20 00:06:10;;;;;;;8.13;5.07;;;0.70;99.90;;;;;;5016177;28;20049;-76
2023/01/20 00:08:36;;;;;;;7.07;4.55;;;0.80;99.90;;;;;;5015207;28;20037;-80
2023/01/20 00:11:03;;;;;;;7.97;4.07;;;0.90;99.90;;;;;;5015899;28;20041;-81
2023/01/20 00:13:29;;;;;;;9.55;4.18;;;0.90;99.90;;;;;;5006568;28;20052;-79
2023/01/20 00:15:56;;;;;;;8.38;4.82;;;0.90;99.90;;;;;;4997762;28;20046;-80
2023/01/20 00:18:23;;;;;;;9.93;4.20;;;1.00;99.90;;;;;;4999009;28;20065;-79
2023/01/20 00:20:49;;;;;;;9.48;4.93;;;0.90;99.90;;;;;;4998964;28;20053;-82
2023/01/20 00:23:16;;;;;;;8.82;4.88;;;0.90;99.90;;;;;;4997437;28;20072;-79
2023/01/20 00:25:42;;;;;;;11.32;4.60;;;0.80;99.90;;;;;;4998957;28;20052;-81
2023/01/20 00:28:09;;;;;;;9.70;4.18;;;0.80;99.90;;;;;;5015289;28;20381;-81
2023/01/20 00:30:36;;;;;;;6.63;4.10;;;0.80;99.90;;;;;;4997438;28;20533;-80
2023/01/20 00:33:02;;;;;;;8.20;4.63;;;0.80;99.90;;;;;;4998370;28;20065;-82
2023/01/20 00:35:29;;;;;;;10.48;5.57;;;0.70;99.90;;;;;;4997354;28;20328;-79
2023/01/20 00:37:56;;;;;;;7.65;4.35;;;0.60;99.90;;;;;;5015710;28;20042;-81
2023/01/20 00:40:22;;;;;;;9.65;5.47;;;0.60;99.90;;;;;;4998369;28;20050;-82
2023/01/20 00:42:49;;;;;;;8.45;4.90;;;0.60;99.90;;;;;;4996829;28;20042;-82
2023/01/20 00:45:16;;;;;;;7.45;3.58;;;0.60;99.90;;;;;;5015547;28;20045;-78
2023/01/20 00:47:42;;;;;;;9.48;4.63;;;0.60;99.90;;;;;;5015557;28;20103;-80
2023/01/20 00:50:09;;;;;;;11.40;4.85;;;0.60;99.90;;;;;;5014314;28;20062;-80
2023/01/20 00:52:36;;;;;;;9.38;4.70;;;0.50;99.90;;;;;;5015163;28;20046;-80
2023/01/20 00:55:02;;;;;;;9.45;4.75;;;0.50;99.90;;;;;;4998073;28;20041;-81
2023/01/20 00:57:29;;;;;;;6.95;4.30;;;0.50;99.90;;;;;;4996927;28;20120;-82
2023/01/20 00:59:55;;;;;;;6.75;3.67;;;0.50;99.90;;;;;;5015463;28;20544;-79
2023/01/20 01:02:22;;;;;;;7.47;4.53;;;0.50;99.90;;;;;;4996509;28;20045;-80
2023/01/20 01:04:49;;;;;;;6.93;4.63;;;0.50;99.90;;;;;;4997967;28;20399;-80
2023/01/20 01:07:16;;;;;;;7.95;4.45;;;0.50;99.90;;;;;;4997892;28;20467;-80
2023/01/20 01:09:43;;;;;;;7.68;3.35;;;0.50;99.90;;;;;;4996788;28;20034;-81
2023/01/20 01:12:09;;;;;;;9.77;6.10;;;0.40;99.90;;;;;;4997552;28;20042;-81
2023/01/20 01:14:36;;;;;;;9.82;4.63;;;0.50;99.90;;;;;;4997881;28;20136;-80
2023/01/20 01:17:03;;;;;;;6.63;3.95;;;0.50;99.90;;;;;;4996815;28;20045;-78
2023/01/20 01:19:29;;;;;;;8.93;4.00;;;0.50;99.90;;;;;;5015119;28;20045;-82
2023/01/20 01:21:56;;;;;;;7.80;4.45;;;0.50;99.90;;;;;;4996194;28;20037;-81
2023/01/20 01:24:23;;;;;;;6.10;3.47;;;0.50;99.90;;;;;;5014985;28;20058;-81
2023/01/20 01:26:49;;;;;;;7.78;3.92;;;0.60;99.90;;;;;;4997820;28;20049;-83
2023/01/20 01:29:16;;;;;;;11.50;5.18;;;0.60;99.90;;;;;;4996799;28;20113;-82
2023/01/20 01:31:43;;;;;;;6.38;3.60;;;0.60;99.90;;;;;;5014652;28;20038;-82
2023/01/20 01:34:10;;;;;;;8.07;3.38;;;0.50;99.90;;;;;;5003901;28;20038;-80
2023/01/20 01:36:36;;;;;;;6.97;4.32;;;0.60;99.90;;;;;;5033549;28;20037;-80
2023/01/20 01:39:03;;;;;;;7.53;3.70;;;0.70;99.90;;;;;;5034401;28;20046;-79
2023/01/20 01:41:29;;;;;;;6.25;3.60;;;0.80;99.90;;;;;;5016817;28;20053;-80
2023/01/20 01:43:56;;;;;;;5.13;2.83;;;0.90;99.90;;;;;;5033356;28;20065;-82
2023/01/20 01:46:23;;;;;;;7.78;3.72;;;1.00;99.90;;;;;;5034600;28;20044;-80
2023/01/20 01:48:50;;;;;;;6.13;3.72;;;1.10;99.90;;;;;;5033241;28;20531;-80
2023/01/20 01:51:16;;;;;;;7.85;3.40;;;1.20;99.90;;;;;;5034103;28;20124;-82
2023/01/20 01:53:43;;;;;;;6.18;3.28;;;1.20;99.90;;;;;;5016875;28;20053;-80
2023/01/20 01:56:10;;;;;;;8.52;3.38;;;1.20;99.90;;;;;;5016253;28;20037;-81
2023/01/20 01:58:36;;;;;;;8.80;4.07;;;1.30;99.90;;;;;;5017095;28;20041;-80
2023/01/20 02:01:03;;;;;;;4.47;2.90;;;1.30;99.90;;;;;;5016540;28;20057;-79
2023/01/20 02:03:30;;;;;;;6.40;3.17;;;1.30;99.90;;;;;;5016047;28;20041;-80
2023/01/20 02:05:56;;;;;;;8.02;3.72;;;1.40;99.90;;;;;;5016806;28;20042;-79
2023/01/20 02:08:23;;;;;;;6.78;3.67;;;1.40;99.90;;;;;;5016750;28;20045;-80
2023/01/20 02:10:49;;;;;;;6.10;3.08;;;1.40;99.90;;;;;;5015771;28;20037;-81
2023/01/20 02:13:16;;;;;;;6.28;3.33;;;1.30;99.90;;;;;;5022046;28;20049;-79
2023/01/20 02:15:43;;;;;;;5.97;2.90;;;1.40;99.90;;;;;;5010794;28;20057;-81
2023/01/20 02:18:09;;;;;;;5.65;2.50;;;1.30;99.90;;;;;;4996980;28;20057;-82
2023/01/20 02:20:36;;;;;;;5.38;2.97;;;1.30;99.90;;;;;;4997168;28;20045;-80
2023/01/20 02:23:03;;;;;;;4.72;2.95;;;1.20;99.90;;;;;;4995454;28;20054;-81
2023/01/20 02:25:29;;;;;;;8.73;2.80;;;1.20;99.90;;;;;;4981090;28;20042;-78
2023/01/20 02:27:56;;;;;;;9.60;3.63;;;1.10;99.90;;;;;;4997297;28;20045;-81
2023/01/20 02:30:22;;;;;;;7.55;2.78;;;1.00;99.90;;;;;;5013254;28;20034;-79
2023/01/20 02:32:49;;;;;;;6.57;3.40;;;0.90;99.90;;;;;;4996607;28;20091;-79
2023/01/20 02:35:16;;;;;;;7.47;2.42;;;0.90;99.90;;;;;;4995852;28;20061;-82
2023/01/20 02:37:42;;;;;;;7.68;3.53;;;0.80;99.90;;;;;;5014487;28;20050;-82
2023/01/20 02:40:09;;;;;;;3.08;2.63;;;0.80;99.90;;;;;;5014582;28;20041;-82
2023/01/20 02:42:36;;;;;;;5.50;3.25;;;0.70;99.90;;;;;;5012757;28;20046;-82
2023/01/20 02:45:03;;;;;;;5.57;2.95;;;0.70;99.90;;;;;;5014481;28;20041;-81
2023/01/20 02:47:30;;;;;;;4.95;3.67;;;0.60;99.90;;;;;;4997144;28;20396;-82
2023/01/20 02:49:58;;;;;;;7.95;3.60;;;0.60;99.90;;;;;;4995706;28;20053;-80
2023/01/20 02:52:24;;;;;;;7.95;3.30;;;0.50;99.90;;;;;;5017429;28;20042;-80
2023/01/20 02:54:51;;;;;;;6.50;2.67;;;0.50;99.90;;;;;;5019164;28;20053;-81
2023/01/20 02:57:18;;;;;;;3.75;2.20;;;0.50;99.90;;;;;;5036212;28;20049;-82
2023/01/20 02:59:44;;;;;;;8.57;2.53;;;0.50;99.90;;;;;;5020112;28;20046;-78
2023/01/20 03:02:11;;;;;;;5.72;2.35;;;0.50;99.90;;;;;;5035752;28;20045;-79
2023/01/20 03:04:37;;;;;;;5.80;2.92;;;0.50;99.90;;;;;;5019833;28;20069;-81
2023/01/20 03:07:04;;;;;;;5.88;2.35;;;0.40;99.90;;;;;;5003585;28;20043;-81
2023/01/20 03:09:31;;;;;;;5.75;2.70;;;0.40;99.90;;;;;;5036070;28;20041;-82
2023/01/20 03:11:57;;;;;;;4.70;2.78;;;0.40;99.90;;;;;;5019395;28;20124;-78
2023/01/20 03:14:24;;;;;;;5.22;2.55;;;0.40;99.90;;;;;;5037052;28;20038;-80
2023/01/20 03:16:51;;;;;;;8.18;3.13;;;0.40;99.90;;;;;;5018585;28;20042;-80
2023/01/20 03:19:17;;;;;;;12.10;3.70;;;0.30;99.90;;;;;;5019460;28;20115;-83
2023/01/20 03:21:46;;;;;;;5.13;2.42;;;0.40;99.90;;;;;;5036463;28;20052;-81
2023/01/20 03:24:12;;;;;;;4.38;2.40;;;0.40;99.90;;;;;;5018622;28;20037;-81
2023/01/20 03:26:39;;;;;;;7.55;2.80;;;0.50;99.90;;;;;;5019349;28;20442;-81
2023/01/20 03:29:06;;;;;;;6.03;2.42;;;0.50;99.90;;;;;;5035722;28;20045;-78
2023/01/20 03:31:32;;;;;;;5.93;2.45;;;0.50;99.90;;;;;;5018936;28;20048;-80
2023/01/20 03:33:59;;;;;;;5.57;2.42;;;0.50;99.90;;;;;;5019403;28;20404;-82
2023/01/20 03:36:25;;;;;;;4.32;2.13;;;0.60;99.90;;;;;;5035600;28;20052;-80
2023/01/20 03:38:52;;;;;;;8.95;3.17;;;0.60;99.90;;;;;;5019284;28;20460;-79
2023/01/20 03:41:19;;;;;;;3.53;2.30;;;0.60;99.90;;;;;;5036191;28;20348;-80
2023/01/20 03:43:45;;;;;;;5.65;1.80;;;0.60;99.90;;;;;;5018070;28;20041;-80
2023/01/20 03:46:12;;;;;;;5.25;2.40;;;0.60;99.90;;;;;;5018669;28;20144;-80
2023/01/20 03:48:39;;;;;;;6.03;3.20;;;0.60;99.90;;;;;;5017915;28;20112;-81
2023/01/20 03:51:05;;;;;;;4.85;2.05;;;0.70;99.90;;;;;;5035905;28;20037;-79
2023/01/20 03:53:32;;;;;;;5.43;2.33;;;0.60;99.90;;;;;;5018769;28;20381;-80
2023/01/20 03:55:59;;;;;;;4.00;2.10;;;0.70;99.90;;;;;;5017604;28;20480;-80
2023/01/20 03:58:25;;;;;;;5.93;2.38;;;0.60;99.90;;;;;;5018872;28;20048;-80
2023/01/20 04:00:53;;;;;;;4.15;2.13;;;0.60;99.90;;;;;;5018174;28;20499;-81
2023/01/20 04:03:20;;;;;;;4.43;2.10;;;0.60;99.90;;;;;;5016539;28;20045;-83
2023/01/20 04:05:47;;;;;;;4.63;2.53;;;0.60;99.90;;;;;;5018561;28;20041;-83
2023/01/20 04:08:13;;;;;;;4.63;1.77;;;0.60;99.90;;;;;;5018634;28;20041;-79
2023/01/20 04:10:40;;;;;;;5.88;3.17;;;0.60;99.90;;;;;;5034811;28;20033;-83
2023/01/20 04:13:07;;;;;;;6.57;2.00;;;0.50;99.90;;;;;;5035496;28;20045;-82
2023/01/20 04:15:33;;;;;;;4.93;1.92;;;0.60;99.90;;;;;;5034736;28;20045;-80
2023/01/20 04:18:00;;;;;;;4.40;2.10;;;0.60;99.90;;;;;;5018595;28;20125;-79
2023/01/20 04:20:27;;;;;;;6.88;2.10;;;0.60;99.90;;;;;;5018275;28;20045;-79
2023/01/20 04:22:53;;;;;;;4.88;2.17;;;0.70;99.90;;;;;;5016756;28;20037;-79
2023/01/20 04:25:20;;;;;;;5.03;2.10;;;0.70;99.90;;;;;;5018535;28;20041;-81
2023/01/20 04:27:47;;;;;;;4.65;1.70;;;0.60;99.90;;;;;;5018097;28;20038;-81
2023/01/20 04:30:13;;;;;;;5.22;2.00;;;0.60;99.90;;;;;;5017461;28;20046;-80
2023/01/20 04:32:40;;;;;;;5.72;1.77;;;0.60;99.90;;;;;;5035059;28;20048;-82
2023/01/20 04:35:06;;;;;;;4.43;1.80;;;0.50;99.90;;;;;;5035423;28;20041;-79
2023/01/20 04:37:33;;;;;;;6.28;1.70;;;0.40;99.90;;;;;;5017400;28;20041;-81
2023/01/20 04:40:00;;;;;;;5.53;2.40;;;0.40;99.90;;;;;;5018117;28;20041;-79
2023/01/20 04:42:26;;;;;;;4.65;1.75;;;0.40;99.90;;;;;;5016167;28;20055;-81
2023/01/20 04:44:53;;;;;;;5.90;2.35;;;0.40;99.90;;;;;;5017961;28;20049;-78
2023/01/20 04:47:20;;;;;;;5.20;1.88;;;0.50;99.90;;;;;;5017818;28;20056;-81
2023/01/20 04:49:46;;;;;;;3.58;1.85;;;0.50;99.90;;;;;;5016556;28;20053;-78
2023/01/20 04:52:13;;;;;;;6.15;2.25;;;0.40;99.90;;;;;;5034778;28;20041;-79
2023/01/20 04:54:39;;;;;;;4.82;1.90;;;0.40;99.90;;;;;;5017724;28;20071;-78
2023/01/20 04:57:06;;;;;;;6.05;2.20;;;0.30;99.90;;;;;;4996961;28;20056;-81
2023/01/20 04:59:33;;;;;;;3.80;1.92;;;0.40;99.90;;;;;;5015454;28;20369;-78
2023/01/20 05:01:59;;;;;;;7.07;2.17;;;0.30;99.90;;;;;;4996808;28;20049;-81
2023/01/20 05:04:26;;;;;;;4.55;2.20;;;0.20;99.90;;;;;;5015493;28;20384;-81
2023/01/20 05:06:53;;;;;;;5.63;1.95;;;0.30;99.90;;;;;;5015468;28;20030;-82
2023/01/20 05:09:20;;;;;;;4.47;2.20;;;0.30;99.90;;;;;;4980832;28;20380;-79
2023/01/20 05:11:46;;;;;;;2.75;1.50;;;0.30;99.90;;;;;;4997324;28;20383;-80
2023/01/20 05:14:13;;;;;;;3.55;2.08;;;0.30;99.90;;;;;;5014803;28;20050;-79
2023/01/20 05:16:39;;;;;;;6.18;2.22;;;0.20;99.90;;;;;;5014058;28;20064;-79
2023/01/20 05:19:06;;;;;;;3.25;1.70;;;0.10;99.90;;;;;;5015181;28;20065;-79
2023/01/20 05:21:33;;;;;;;8.95;2.88;;;0.10;99.90;;;;;;5014579;28;20041;-79
2023/01/20 05:23:59;;;;;;;10.50;2.15;;;0.30;99.90;;;;;;5013812;28;20037;-82
2023/01/20 05:26:26;;;;;;;2.92;1.70;;;0.30;99.90;;;;;;5014902;28;20045;-79
2023/01/20 05:28:52;;;;;;;4.68;2.25;;;0.20;99.90;;;;;;5013837;28;20041;-82
2023/01/20 05:31:19;;;;;;;9.15;3.03;;;0.20;99.90;;;;;;4997169;28;20042;-79
2023/01/20 05:33:46;;;;;;;4.70;2.10;;;0.20;99.90;;;;;;4997918;28;20100;-81
2023/01/20 05:36:12;;;;;;;10.40;2.92;;;0.10;99.90;;;;;;4996495;28;20092;-81
2023/01/20 05:38:39;;;;;;;8.02;3.35;;;0.10;99.90;;;;;;5014706;28;20472;-80
2023/01/20 05:41:06;;;;;;;5.10;1.88;;;0.20;99.90;;;;;;4997126;28;20252;-78
2023/01/20 05:43:32;;;;;;;4.25;2.17;;;0.20;99.90;;;;;;4996578;28;20042;-80
2023/01/20 05:45:59;;;;;;;4.63;2.20;;;0.30;99.90;;;;;;4997468;28;20388;-82
2023/01/20 05:48:26;;;;;;;12.32;3.47;;;0.20;99.90;;;;;;4997589;28;20468;-82
2023/01/20 05:50:52;;;;;;;7.10;2.83;;;0.20;99.90;;;;;;4996134;28;20042;-82
2023/01/20 05:53:19;;;;;;;5.90;2.40;;;0.20;99.90;;;;;;4997341;28;20108;-82
2023/01/20 05:55:46;;;;;;;7.97;2.85;;;0.20;99.90;;;;;;4996294;28;20046;-79
2023/01/20 05:58:12;;;;;;;3.38;1.80;;;0.30;99.90;;;;;;4997525;28;20046;-80
2023/01/20 06:00:39;;;;;;;5.13;1.98;;;0.30;99.90;;;;;;4996925;28;20061;-79
2023/01/20 06:03:05;;;;;;;6.22;2.00;;;0.30;99.90;;;;;;4996049;28;20042;-79
2023/01/20 06:05:32;;;;;;;3.63;1.63;;;0.20;99.90;;;;;;4997332;28;20060;-82
2023/01/20 06:07:59;;;;;;;7.53;2.40;;;0.20;99.90;;;;;;4997296;28;20061;-81
2023/01/20 06:10:29;;;;;;;3.17;2.00;;;0.20;99.90;;;;;;4996339;28;20050;-79
2023/01/20 06:12:55;;;;;;;;;;;0.20;99.90;;;;;;5014633;28;20048;-80
2023/01/20 06:15:22;;;;;;;3.17;2.17;;;0.20;99.90;;;;;;5013570;28;19921;-81
2023/01/20 06:17:49;;;;;;;3.80;1.85;;;0.20;99.90;;;;;;4997146;28;20070;-81
2023/01/20 06:20:15;;;;;;;6.47;2.10;;;0.20;99.90;;;;;;4997210;28;20382;-81
2023/01/20 06:22:42;;;;;;;5.35;2.30;;;0.00;99.90;;;;;;4995628;28;20045;-83
2023/01/20 06:25:09;;;;;;;7.38;2.00;;;0.00;99.90;;;;;;4997740;28;20117;-82
2023/01/20 06:27:36;;;;;;;4.53;1.95;;;0.10;99.90;;;;;;5018330;28;20360;-82
2023/01/20 06:30:02;;;;;;;2.75;2.10;;;0.10;99.90;;;;;;4999939;28;20453;-81
2023/01/20 06:32:29;;;;;;;5.00;2.03;;;0.10;99.90;;;;;;5000664;28;20045;-79
2023/01/20 06:34:56;;;;;;;6.68;2.45;;;0.00;99.90;;;;;;5018258;28;20381;-79
2023/01/20 06:37:22;;;;;;;5.72;2.13;;;0.10;99.90;;;;;;5017004;28;20053;-81
2023/01/20 06:39:49;;;;;;;4.50;1.90;;;0.10;99.90;;;;;;5000697;28;20484;-82
2023/01/20 06:42:15;;;;;;;4.95;2.35;;;0.10;99.90;;;;;;4999179;28;20262;-80
2023/01/20 06:44:42;;;;;;;3.95;1.85;;;0.10;99.90;;;;;;5017785;28;20053;-82
2023/01/20 06:47:09;;;;;;;6.15;2.35;;;0.00;99.90;;;;;;5017949;28;20042;-79
2023/01/20 06:49:35;;;;;;;4.68;2.25;;;0.00;99.90;;;;;;5016438;28;20050;-81
2023/01/20 06:52:02;;;;;;;6.72;2.25;;;0.00;99.90;;;;;;5000161;28;20042;-81
2023/01/20 06:54:28;;;;;;;3.70;1.70;;;0.00;99.90;;;;;;5000916;28;20050;-83
2023/01/20 06:56:55;;;;;;;8.20;2.95;;;0.10;99.90;;;;;;5023228;28;20372;-83
2023/01/20 06:59:22;;;;;;;7.28;2.42;;;0.10;99.90;;;;;;5020082;28;20041;-79
2023/01/20 07:01:48;;;;;;;4.28;1.80;;;0.10;99.90;;;;;;5019255;28;20059;-80
2023/01/20 07:04:15;;;;;;;3.55;2.05;;;0.00;99.90;;;;;;5036297;28;20060;-81
2023/01/20 07:06:42;;;;;;;3.30;2.22;;;0.00;99.90;;;;;;5036376;28;20052;-82
2023/01/20 07:09:08;;;;;;;6.05;2.38;;;0.10;99.90;;;;;;5018724;28;20037;-82
2023/01/20 07:11:36;;;;;;;6.32;2.35;;;0.10;99.90;;;;;;5036742;28;20034;-82
2023/01/20 07:14:02;;;;;;;6.57;2.30;;;0.10;99.90;;;;;;5036220;28;20464;-81
2023/01/20 07:16:29;;;;;;;8.60;3.15;;;0.00;99.90;;;;;;5018546;28;20049;-82
2023/01/20 07:18:56;;;;;;;6.30;2.15;;;0.00;99.90;;;;;;5019520;28;20052;-80
2023/01/20 07:21:22;;;;;;;7.40;2.20;;;0.00;99.90;;;;;;5036613;28;20361;-80
2023/01/20 07:23:52;;;;;;;3.40;1.90;;;-0.10;99.90;;;;;;5035786;28;20034;-80
2023/01/20 07:26:18;;;;;;;6.90;2.38;;;-0.10;99.90;;;;;;5036915;28;20052;-80
2023/01/20 07:28:45;;;;;;;6.13;1.98;;;-0.10;99.90;;;;;;5035934;28;20042;-81
2023/01/20 07:31:11;;;;;;;6.38;2.50;;;0.00;99.90;;;;;;5036473;28;20041;-80
2023/01/20 07:33:38;;;;;;;5.43;2.00;;;0.00;99.90;;;;;;5035706;28;20111;-80
2023/01/20 07:36:05;;;;;;;3.30;2.63;;;0.00;99.90;;;;;;5034599;28;20047;-82
2023/01/20 07:38:32;;;;;;;7.65;3.33;;;0.00;99.90;;;;;;5035641;28;20376;-80
2023/01/20 07:40:59;;;;;;;6.97;3.28;;;-0.10;99.90;;;;;;5018760;28;20068;-79
2023/01/20 07:43:25;;;;;;;7.88;2.13;;;0.00;99.90;;;;;;5035396;28;20111;-80
2023/01/20 07:45:52;;;;;;;8.00;3.22;;;0.00;99.90;;;;;;5035701;28;20045;-80
2023/01/20 07:48:19;;;;;;;5.50;2.15;;;0.00;99.90;;;;;;5019023;28;20068;-79
2023/01/20 07:50:45;;;;;;;6.95;2.92;;;0.00;99.90;;;;;;5033897;28;20049;-78
2023/01/20 07:53:12;;;;;;;7.38;2.20;;;-0.10;99.90;;;;;;5036391;28;20037;-81
2023/01/20 07:55:38;;;;;;;5.03;2.65;;;-0.10;99.90;;;;;;5027224;28;20505;-83
2023/01/20 07:58:05;;;;;;;5.85;2.80;;;-0.10;99.90;;;;;;5016214;28;20038;-80
2023/01/20 08:00:32;;;;;;;6.57;2.08;;;0.00;99.90;;;;;;5000014;28;20037;-81
2023/01/20 08:02:58;;;;;;;9.05;2.72;;;0.00;99.90;;;;;;5011809;28;20034;-80
2023/01/20 08:05:25;;;;;;;6.57;2.13;;;0.00;99.90;;;;;;5011968;28;20037;-82
2023/01/20 08:07:52;;;;;;;5.68;3.13;;;0.00;99.90;;;;;;5007025;28;20037;-83
2023/01/20 08:10:18;;;;;;;10.88;2.67;;;0.00;99.90;;;;;;5009790;28;20041;-81
2023/01/20 08:12:45;;;;;;;6.32;2.08;;;0.10;99.90;;;;;;4999725;28;20033;-81
2023/01/20 08:15:12;;;;;;;7.03;2.35;;;0.10;99.90;;;;;;5021532;28;20045;-82
2023/01/20 08:17:39;;;;;;;9.85;3.10;;;0.10;99.90;;;;;;5011111;28;20041;-81
2023/01/20 08:20:05;;;;;;;9.48;3.50;;;0.10;99.90;;;;;;5023760;28;20425;-81
2023/01/20 08:22:32;;;;;;;5.07;2.20;;;0.10;99.90;;;;;;5002434;28;20045;-80
2023/01/20 08:24:59;;;;;;;8.35;3.45;;;0.30;99.90;;;;;;5009114;28;20049;-80
2023/01/20 08:27:25;;;;;;;6.20;2.80;;;0.30;99.90;;;;;;5008993;28;20411;-80
2023/01/20 08:29:52;;;;;;;5.40;2.30;;;0.30;99.90;;;;;;5024206;28;20033;-84
2023/01/20 08:32:19;;;;;;;5.40;2.47;;;0.30;99.90;;;;;;5008669;28;20045;-84
2023/01/20 08:34:45;;;;;;;8.95;2.42;;;0.30;99.90;;;;;;4999504;28;20049;-82
2023/01/20 08:37:12;;;;;;;9.40;2.80;;;0.30;99.90;;;;;;5017071;28;20475;-80
2023/01/20 08:39:39;;;;;;;7.90;2.55;;;0.20;99.90;;;;;;5017639;28;20053;-78
2023/01/20 08:42:05;;;;;;;6.78;2.33;;;0.20;99.90;;;;;;5016859;28;20064;-81
2023/01/20 08:44:32;;;;;;;4.72;2.20;;;0.20;99.90;;;;;;5035274;28;20041;-80
2023/01/20 08:46:59;;;;;;;5.30;2.58;;;0.30;99.90;;;;;;5035140;28;20025;-81
2023/01/20 08:49:25;;;;;;;8.77;2.38;;;0.30;99.90;;;;;;5016112;28;20060;-79
2023/01/20 08:51:52;;;;;;;10.80;3.25;;;0.50;99.90;;;;;;5034994;28;20391;-80
2023/01/20 08:54:21;;;;;;;5.25;2.40;;;0.50;99.90;;;;;;5001655;28;20053;-79
2023/01/20 08:56:47;;;;;;;9.68;3.17;;;0.60;99.90;;;;;;5017179;28;20069;-79
2023/01/20 08:59:14;;;;;;;7.85;3.05;;;0.80;99.90;;;;;;5015657;28;20096;-81
2023/01/20 09:01:42;;;;;;;8.85;3.42;;;0.80;99.90;;;;;;4997825;28;20045;-80
2023/01/20 09:04:10;;;;;;;11.45;4.05;;;0.90;99.90;;;;;;5014217;28;20129;-79
2023/01/20 09:06:37;;;;;;;6.75;3.42;;;1.00;99.90;;;;;;5016524;28;20380;-79
2023/01/20 09:09:03;;;;;;;6.30;2.90;;;1.10;99.90;;;;;;5033994;28;20479;-80
2023/01/20 09:11:30;;;;;;;7.35;2.85;;;1.10;99.90;;;;;;4998196;28;20139;-81
2023/01/20 09:13:57;;;;;;;10.88;3.35;;;1.20;99.90;;;;;;5053711;28;20069;-81
2023/01/20 09:16:23;;;;;;;7.03;3.08;;;1.20;99.90;;;;;;5035783;28;20063;-82
2023/01/20 09:18:50;;;;;;;8.32;2.80;;;1.30;99.90;;;;;;5044271;28;20037;-82
2023/01/20 09:21:16;;;;;;;6.85;2.47;;;1.40;99.90;;;;;;5037844;28;20471;-81
2023/01/20 09:26:37;;;;;;;6.28;2.70;;;1.50;99.90;;;;;;5015702;28;20073;-84
2023/01/20 09:29:07;;;;;;;12.18;4.15;;;1.60;99.90;;;;;;5017200;28;20044;-80
2023/01/20 09:31:35;;;;;;;7.50;2.97;;;1.70;99.90;;;;;;4992631;28;20054;-83
2023/01/20 09:34:03;;;;;;;7.43;2.83;;;1.80;99.90;;;;;;5010271;28;20103;-84
2023/01/20 09:36:30;;;;;;;5.78;3.00;;;1.80;99.90;;;;;;5016531;28;20509;-82
2023/01/20 09:44:27;;;;;;;6.57;3.75;;;2.00;99.90;;;;;;5005890;28;20496;-86
2023/01/20 09:55:11;;;;;;;16.55;4.30;;;2.30;99.90;;;;;;5033726;28;20045;-80
2023/01/20 09:57:38;;;;;;;9.85;3.95;;;2.40;99.90;;;;;;5034014;28;20060;-78
2023/01/20 10:00:05;;;;;;;11.65;5.75;;;2.50;99.90;;;;;;5034293;28;20057;-80
2023/01/20 10:02:32;;;;;;;7.47;3.70;;;2.60;99.90;;;;;;5020229;28;20092;-82
2023/01/20 10:04:58;;;;;;;8.35;3.10;;;2.80;99.90;;;;;;5020787;28;20038;-81
2023/01/20 10:07:25;;;;;;;7.95;3.65;;;3.00;99.90;;;;;;5031763;28;20096;-81
2023/01/20 10:09:52;;;;;;;6.85;4.13;;;3.20;99.90;;;;;;5019990;28;20143;-83
2023/01/20 10:12:18;;;;;;;7.60;3.33;;;3.40;99.90;;;;;;5037778;28;20116;-81
2023/01/20 10:14:45;;;;;;;8.55;3.20;;;3.60;99.90;;;;;;5020626;28;20464;-81
2023/01/20 10:17:12;;;;;;;9.13;2.80;;;3.70;99.90;;;;;;5036964;28;20052;-82
2023/01/20 10:19:41;;;;;;;4.85;2.80;;;3.80;99.90;;;;;;4981831;28;20049;-82
2023/01/20 10:22:07;;;;;;;6.57;3.13;;;3.90;99.90;;;;;;4999250;28;20380;-81
2023/01/20 10:24:34;;;;;;;6.63;2.95;;;4.00;99.90;;;;;;5023351;28;20091;-80
2023/01/20 10:27:01;;;;;;;5.80;3.95;;;4.30;99.90;;;;;;5037754;28;20045;-85
2023/01/20 10:29:28;;;;;;;6.72;3.20;;;4.40;99.90;;;;;;5019443;28;20431;-83
2023/01/20 10:31:55;;;;;;;6.38;3.42;;;4.50;99.90;;;;;;5020911;28;20048;-83
2023/01/20 10:34:22;;;;;;;9.35;2.80;;;4.60;99.90;;;;;;5004451;28;20471;-82
2023/01/20 10:36:49;;;;;;;8.98;3.05;;;4.70;99.90;;;;;;5036703;28;20060;-83
2023/01/20 10:39:16;;;;;;;8.40;4.00;;;4.80;99.90;;;;;;5020447;28;20071;-82
2023/01/20 10:41:42;;;;;;;10.73;3.97;;;4.90;99.90;;;;;;5037406;28;20099;-80
2023/01/20 10:44:10;;;;;;;8.35;2.92;;;5.10;99.90;;;;;;5002922;28;20065;-81
2023/01/20 10:46:36;;;;;;;9.90;4.20;;;5.20;99.90;;;;;;5020242;28;20037;-80
2023/01/20 10:49:03;;;;;;;15.88;4.38;;;5.40;99.90;;;;;;5036612;28;20119;-82
2023/01/20 10:51:30;;;;;;;17.08;4.47;;;5.50;99.90;;;;;;5037042;28;20111;-78
2023/01/20 10:53:57;;;;;;;6.80;3.00;;;5.70;99.90;;;;;;5035243;28;20056;-79
2023/01/20 10:56:23;;;;;;;8.10;4.07;;;5.80;99.90;;;;;;5036232;28;20045;-79
2023/01/20 10:58:50;;;;;;;7.72;3.53;;;6.00;99.90;;;;;;5019839;28;20053;-78
2023/01/20 11:01:17;;;;;;;6.97;3.85;;;6.10;99.90;;;;;;5035972;28;20041;-77
2023/01/20 11:03:45;;;;;;;8.05;2.92;;;6.20;99.90;;;;;;5018806;28;20115;-80
2023/01/20 11:06:12;;;;;;;10.85;3.67;;;6.50;99.90;;;;;;5036218;28;20045;-79
2023/01/20 11:08:39;;;;;;;9.75;3.30;;;6.40;99.90;;;;;;5035100;28;20049;-82
2023/01/20 11:11:05;;;;;;;5.35;3.28;;;6.30;99.90;;;;;;5004181;28;20042;-79
2023/01/20 11:13:32;;;;;;;6.78;3.45;;;6.40;99.90;;;;;;5018506;28;20048;-79
2023/01/20 11:15:59;;;;;;;10.18;3.92;;;6.60;99.90;;;;;;5027928;28;20099;-82
2023/01/20 11:18:26;;;;;;;6.20;3.45;;;6.90;99.90;;;;;;5008270;28;20056;-81
2023/01/20 11:20:53;;;;;;;7.47;2.85;;;7.00;99.90;;;;;;5036768;28;20159;-79
2023/01/20 11:23:20;;;;;;;6.38;3.40;;;7.20;99.90;;;;;;5036081;28;20128;-79
2023/01/20 11:25:46;;;;;;;8.00;3.13;;;7.30;99.90;;;;;;5019766;28;20056;-80
2023/01/20 11:28:13;;;;;;;9.55;3.67;;;7.30;99.90;;;;;;5036900;28;20041;-78
2023/01/20 11:30:40;;;;;;;8.35;3.78;;;7.40;99.90;;;;;;5017719;28;20116;-80
2023/01/20 11:33:06;;;;;;;10.13;3.63;;;7.60;99.90;;;;;;5036733;28;20452;-78
2023/01/20 11:35:33;;;;;;;7.97;3.20;;;7.80;99.90;;;;;;5027607;28;20519;-79
2023/01/20 11:38:00;;;;;;;9.13;3.60;;;8.00;99.90;;;;;;5016891;28;20045;-79
2023/01/20 11:40:26;;;;;;;6.43;2.85;;;8.20;99.90;;;;;;5016639;28;20373;-79
2023/01/20 11:42:53;;;;;;;7.25;3.70;;;8.30;99.90;;;;;;5015697;28;20041;-81
2023/01/20 11:45:20;;;;;;;6.47;3.35;;;8.00;99.90;;;;;;5016704;28;20034;-79
2023/01/20 11:47:47;;;;;;;8.13;3.88;;;8.10;99.90;;;;;;5016177;28;20042;-81
2023/01/20 11:50:14;;;;;;;11.07;4.75;;;8.20;99.90;;;;;;4980252;28;20066;-81
2023/01/20 11:52:47;;;;;;;8.63;3.53;;;7.90;99.90;;;;;;4977509;28;20038;-80
2023/01/20 11:55:14;;;;;;;10.48;3.78;;;7.20;99.90;;;;;;4976749;28;20057;-80
2023/01/20 11:57:41;;;;;;;10.43;3.22;;;6.60;99.90;;;;;;4977294;28;20042;-81
2023/01/20 12:00:07;;;;;;;8.20;3.20;;;6.30;99.90;;;;;;4993395;28;20042;-79
2023/01/20 12:02:40;;;;;;;;;;;5.90;99.90;;;;;;4996699;28;20381;-80
2023/01/20 12:05:07;;;;;;;;;;;5.60;99.90;;;;;;4997360;28;19929;-79
2023/01/20 12:07:33;;;;;;;8.48;3.92;;;5.50;99.90;;;;;;4996079;28;19928;-79
2023/01/20 12:10:02;;;;;;;8.10;3.70;;;5.50;99.90;;;;;;4994672;28;20050;-79
2023/01/20 12:12:29;;;;;;;5.40;3.95;;;5.40;99.90;;;;;;4976469;28;20047;-80
2023/01/20 12:14:59;;;;;;;;;;;5.40;99.90;;;;;;4976855;28;20031;-79
2023/01/20 12:17:25;;;;;;;7.50;3.53;;;5.40;99.90;;;;;;4986171;28;19921;-77
2023/01/20 12:19:52;;;;;;;8.00;3.58;;;5.40;99.90;;;;;;4997025;28;20042;-78
2023/01/20 12:22:19;;;;;;;13.80;4.63;;;5.40;99.90;;;;;;4995681;28;20462;-78
2023/01/20 12:25:19;;;;;;;8.38;3.20;;;5.40;99.90;;;;;;4996393;28;20060;-78
2023/01/20 12:27:38;;;;;;;7.57;3.05;;;5.60;99.90;;;;;;4994067;28;20047;-77
2023/01/20 12:30:05;;;;;;;7.05;4.22;;;5.80;99.90;;;;;;4995785;28;20132;-77
2023/01/20 12:32:32;;;;;;;12.30;4.13;;;6.00;99.90;;;;;;4988008;28;20047;-78
2023/01/20 12:34:59;;;;;;;10.10;3.28;;;6.00;99.90;;;;;;4987372;28;20464;-79
2023/01/20 12:37:25;;;;;;;9.65;3.03;;;6.00;99.90;;;;;;4995276;28;20117;-77
2023/01/20 12:39:52;;;;;;;10.80;3.53;;;6.00;99.90;;;;;;4983865;28;20378;-78
2023/01/20 12:42:18;;;;;;;9.88;3.50;;;5.90;99.90;;;;;;4981239;28;20042;-79
2023/01/20 12:44:45;;;;;;;6.88;3.38;;;6.00;99.90;;;;;;4988872;28;20124;-77
2023/01/20 12:47:12;;;;;;;9.23;3.35;;;5.80;99.90;;;;;;4988018;28;20034;-76
2023/01/20 12:49:39;;;;;;;9.75;3.45;;;5.70;99.90;;;;;;5011630;28;20050;-77
2023/01/20 12:52:06;;;;;;;6.65;2.90;;;5.50;99.90;;;;;;5017543;28;20037;-78
2023/01/20 12:54:33;;;;;;;7.18;3.33;;;5.50;99.90;;;;;;5035096;28;20650;-76
2023/01/20 12:57:13;;;;;;;5.47;2.97;;;5.50;99.90;;;;;;5013393;28;20104;-77
2023/01/20 12:59:40;;;;;;;7.82;3.50;;;5.40;99.90;;;;;;5015349;28;20345;-78
2023/01/20 13:02:06;;;;;;;7.10;3.22;;;5.40;99.90;;;;;;4997051;28;20433;-78
2023/01/20 13:04:34;;;;;;;9.52;3.35;;;5.40;99.90;;;;;;5015270;28;20038;-77
2023/01/20 13:07:03;;;;;;;9.55;3.72;;;5.40;99.90;;;;;;5015675;28;20046;-78
2023/01/20 13:09:29;;;;;;;7.28;3.17;;;5.50;99.90;;;;;;5014893;28;20050;-77
2023/01/20 13:11:56;;;;;;;6.57;2.95;;;5.50;99.90;;;;;;4997732;28;20392;-78